createdAt,value
2019-05-15T04:35:41.601Z,3.10
2019-05-15T04:38:10.852Z,3.17
2019-05-15T04:40:41.183Z,3.00
2019-05-15T04:43:11.295Z,3.13
2019-05-15T04:45:40.857Z,3.20
2019-05-15T04:48:10.617Z,3.47
2019-05-15T04:50:40.504Z,3.00
2019-05-15T04:53:11.038Z,3.50
2019-05-15T04:55:41.007Z,2.83
2019-05-15T04:58:10.754Z,2.50
2019-05-15T05:00:52.048Z,2.80
2019-05-15T05:03:21.426Z,3.07
2019-05-15T05:05:51.471Z,2.83
2019-05-15T05:08:21.221Z,2.93
2019-05-15T05:10:51.292Z,3.00
2019-05-15T05:13:20.641Z,2.70
2019-05-15T05:15:50.737Z,2.90
2019-05-15T05:18:20.748Z,2.83
2019-05-15T05:20:50.011Z,3.20
2019-05-15T05:23:19.603Z,2.90
2019-05-15T05:25:49.443Z,3.07
2019-05-15T05:28:19.119Z,3.30
2019-05-15T05:30:48.697Z,3.20
2019-05-15T05:33:18.860Z,2.80
2019-05-15T05:35:48.719Z,2.67
2019-05-15T05:38:19.691Z,2.80
2019-05-15T05:40:50.190Z,2.90
2019-05-15T05:43:20.595Z,3.17
2019-05-15T05:45:49.838Z,3.20
2019-05-15T05:48:19.499Z,3.00
2019-05-15T05:50:49.919Z,3.03
2019-05-15T05:53:21.304Z,3.30
2019-05-15T05:55:53.133Z,3.20
2019-05-15T05:58:21.677Z,3.10
2019-05-15T06:00:51.883Z,2.80
2019-05-15T06:03:21.163Z,2.90
2019-05-15T06:05:50.435Z,3.30
2019-05-15T06:08:20.204Z,3.25
2019-05-15T06:10:49.997Z,3.00
2019-05-15T06:13:19.925Z,3.03
2019-05-15T06:15:49.296Z,3.10
2019-05-15T06:18:19.882Z,2.80
2019-05-15T06:20:50.003Z,3.00
2019-05-15T06:23:24.403Z,3.20
2019-05-15T06:25:51.243Z,3.00
2019-05-15T06:28:20.819Z,2.80
2019-05-15T06:30:50.026Z,3.20
2019-05-15T06:33:19.358Z,3.13
2019-05-15T06:35:49.248Z,3.50
2019-05-15T06:38:19.843Z,3.40
2019-05-15T06:40:50.906Z,3.23
2019-05-15T06:43:20.174Z,3.43
2019-05-15T06:45:49.736Z,3.27
2019-05-15T06:48:19.170Z,3.50
2019-05-15T06:50:49.318Z,3.53
2019-05-15T06:53:19.727Z,3.43
2019-05-15T06:55:49.322Z,3.40
2019-05-15T06:58:19.485Z,3.67
2019-05-15T07:00:49.932Z,3.90
2019-05-15T07:03:25.145Z,3.47
2019-05-15T07:05:51.204Z,3.30
2019-05-15T07:08:21.090Z,3.47
2019-05-15T07:10:50.317Z,3.30
2019-05-15T07:13:19.589Z,3.67
2019-05-15T07:15:49.984Z,3.53
2019-05-15T07:18:20.376Z,3.43
2019-05-15T07:20:50.964Z,3.60
2019-05-15T07:23:20.156Z,3.40
2019-05-15T07:25:50.168Z,3.27
2019-05-15T07:28:19.610Z,3.03
2019-05-15T07:30:49.655Z,3.37
2019-05-15T07:33:35.432Z,3.00
2019-05-15T07:35:50.654Z,2.93
2019-05-15T07:38:20.201Z,3.20
2019-05-15T07:40:55.694Z,3.23
2019-05-15T07:43:20.404Z,2.90
2019-05-15T07:45:53.962Z,4.00
2019-05-15T07:48:20.689Z,3.63
2019-05-15T07:50:50.113Z,2.97
2019-05-15T07:53:20.318Z,2.83
2019-05-15T07:55:51.195Z,3.13
2019-05-15T07:58:22.230Z,3.17
2019-05-15T08:00:54.643Z,3.40
2019-05-15T08:03:23.930Z,3.50
2019-05-15T08:05:59.328Z,3.00
2019-05-15T08:08:24.130Z,3.30
2019-05-15T08:10:53.323Z,2.90
2019-05-15T08:13:22.625Z,3.27
2019-05-15T08:15:51.799Z,2.70
2019-05-15T08:18:21.080Z,3.30
2019-05-15T08:20:50.447Z,2.57
2019-05-15T08:23:19.816Z,3.13
2019-05-15T08:25:49.206Z,3.07
2019-05-15T08:28:19.225Z,3.13
2019-05-15T08:30:49.859Z,3.13
2019-05-15T08:33:19.735Z,3.10
2019-05-15T08:35:51.850Z,3.40
2019-05-15T08:38:20.060Z,3.27
2019-05-15T08:40:49.392Z,3.20
2019-05-15T08:43:18.794Z,3.43
2019-05-15T08:45:49.620Z,3.00
2019-05-15T08:48:19.088Z,3.30
2019-05-15T08:50:48.954Z,3.10
2019-05-15T08:53:19.350Z,3.30
2019-05-15T08:55:49.465Z,3.13
2019-05-15T08:58:20.405Z,3.50
2019-05-15T09:00:52.201Z,3.23
2019-05-15T09:03:20.675Z,3.00
2019-05-15T09:05:49.852Z,3.20
2019-05-15T09:08:19.878Z,3.40
2019-05-15T09:10:50.343Z,3.33
2019-05-15T09:13:20.040Z,3.20
2019-05-15T09:15:50.075Z,2.90
2019-05-15T09:18:20.613Z,3.17
2019-05-15T09:20:51.310Z,3.00
2019-05-15T09:23:20.534Z,3.60
2019-05-15T09:25:50.069Z,3.40
2019-05-15T09:28:19.681Z,3.17
2019-05-15T09:30:49.516Z,3.40
2019-05-15T09:33:20.071Z,3.00
2019-05-15T09:35:49.851Z,3.70
2019-05-15T09:38:19.139Z,3.40
2019-05-15T09:40:50.871Z,3.60
2019-05-15T09:43:20.013Z,3.33
2019-05-15T09:45:50.016Z,3.40
2019-05-15T09:48:20.300Z,3.33
2019-05-15T09:50:50.642Z,3.40
2019-05-15T09:53:20.053Z,3.40
2019-05-15T09:55:50.561Z,6.00
2019-05-15T09:58:20.842Z,3.70
2019-05-15T10:00:52.824Z,3.57
2019-05-15T10:03:21.725Z,3.40
2019-05-15T10:05:51.191Z,3.50
2019-05-15T10:08:21.487Z,3.20
2019-05-15T10:10:51.223Z,3.50
2019-05-15T10:13:20.629Z,3.30
2019-05-15T10:15:51.033Z,3.20
2019-05-15T10:18:20.601Z,2.90
2019-05-15T10:20:49.924Z,3.33
2019-05-15T10:23:19.889Z,3.10
2019-05-15T10:25:49.410Z,3.33
2019-05-15T10:28:19.340Z,2.93
2019-05-15T10:30:50.718Z,3.20
2019-05-15T10:33:20.605Z,3.07
2019-05-15T10:35:50.268Z,5.03
2019-05-15T10:38:19.761Z,3.30
2019-05-15T10:41:03.826Z,3.50
2019-05-15T10:43:21.172Z,3.20
2019-05-15T10:45:54.462Z,3.07
2019-05-15T10:48:21.596Z,9.63
2019-05-15T10:50:50.882Z,6.27
2019-05-15T10:53:20.198Z,4.30
2019-05-15T10:55:49.740Z,4.27
2019-05-15T10:58:21.994Z,3.57
2019-05-15T11:00:50.815Z,3.70
2019-05-15T11:03:20.304Z,3.70
2019-05-15T11:05:49.633Z,3.73
2019-05-15T11:08:19.223Z,3.50
2019-05-15T11:10:49.675Z,3.57
2019-05-15T11:13:19.482Z,3.40
2019-05-15T11:15:49.319Z,3.10
2019-05-15T11:18:18.845Z,3.60
2019-05-15T11:20:48.951Z,3.67
2019-05-15T11:23:19.924Z,3.30
2019-05-15T11:25:49.394Z,3.40
2019-05-15T11:28:18.674Z,3.63
2019-05-15T11:30:49.012Z,3.40
2019-05-15T11:33:19.208Z,3.80
2019-05-15T11:36:01.263Z,3.27
2019-05-15T11:38:21.326Z,3.80
2019-05-15T11:40:50.548Z,3.40
2019-05-15T11:43:20.038Z,3.30
2019-05-15T11:45:49.399Z,3.77
2019-05-15T11:48:20.539Z,4.03
2019-05-15T11:50:49.555Z,3.53
2019-05-15T11:53:19.348Z,3.30
2019-05-15T11:55:48.922Z,3.40
2019-05-15T11:58:18.898Z,3.23
2019-05-15T12:00:49.436Z,3.87
2019-05-15T12:03:20.231Z,3.70
2019-05-15T12:05:49.510Z,3.70
2019-05-15T12:08:18.891Z,3.83
2019-05-15T12:10:48.553Z,3.47
2019-05-15T12:13:18.989Z,3.97
2019-05-15T12:15:48.863Z,3.40
2019-05-15T12:18:18.370Z,3.13
2019-05-15T12:20:48.721Z,3.73
2019-05-15T12:23:18.580Z,3.47
2019-05-15T12:25:48.775Z,3.40
2019-05-15T12:28:18.805Z,3.50
2019-05-15T12:30:49.181Z,3.63
2019-05-15T12:33:18.826Z,4.30
2019-05-15T12:35:50.744Z,3.77
2019-05-15T12:38:19.217Z,3.20
2019-05-15T13:00:57.879Z,3.10
2019-05-15T13:03:28.905Z,3.57
2019-05-15T13:05:58.430Z,3.40
2019-05-15T13:08:29.115Z,3.40
2019-05-15T13:10:58.740Z,3.67
2019-05-15T13:13:28.479Z,3.27
2019-05-15T13:15:58.984Z,3.67
2019-05-15T13:18:28.753Z,3.00
2019-05-15T13:20:59.483Z,2.90
2019-05-15T13:23:28.999Z,2.80
2019-05-15T13:25:59.184Z,3.20
2019-05-15T13:28:29.448Z,3.03
2019-05-15T13:30:59.824Z,3.27
2019-05-15T13:33:29.276Z,2.97
2019-05-15T13:35:58.710Z,3.40
2019-05-15T13:38:28.833Z,3.53
2019-05-15T13:40:59.136Z,3.80
2019-05-15T13:43:29.177Z,3.40
2019-05-15T13:45:59.506Z,3.53
2019-05-15T13:48:29.612Z,3.30
2019-05-15T13:50:59.524Z,3.50
2019-05-15T13:53:28.898Z,3.17
2019-05-15T13:55:58.566Z,3.53
2019-05-15T13:58:28.359Z,3.40
2019-05-15T14:00:58.967Z,2.87
2019-05-15T14:03:29.824Z,3.20
2019-05-15T14:05:59.131Z,3.23
2019-05-15T14:08:28.933Z,3.07
2019-05-15T14:10:58.729Z,3.30
2019-05-15T14:13:28.943Z,3.80
2019-05-15T14:15:58.593Z,3.03
2019-05-15T14:18:28.585Z,3.20
2019-05-15T14:20:58.681Z,3.13
2019-05-15T14:23:29.543Z,3.20
2019-05-15T14:26:12.983Z,3.30
2019-05-15T14:28:30.035Z,2.80
2019-05-15T14:31:01.090Z,3.20
2019-05-15T14:33:30.282Z,3.30
2019-05-15T14:35:59.541Z,3.20
2019-05-15T14:38:29.166Z,3.20
2019-05-15T14:40:59.346Z,3.47
2019-05-15T14:43:29.433Z,3.23
2019-05-15T14:45:59.323Z,3.80
2019-05-15T14:48:28.608Z,3.60
2019-05-15T14:50:58.425Z,3.30
2019-05-15T14:53:29.443Z,3.10
2019-05-15T14:56:00.323Z,3.60
2019-05-15T14:58:29.882Z,3.67
2019-05-15T15:01:03.061Z,3.57
2019-05-15T15:03:30.216Z,4.00
2019-05-15T15:06:00.055Z,3.33
2019-05-15T15:08:32.197Z,3.57
2019-05-15T15:11:00.639Z,3.20
2019-05-15T15:13:30.287Z,4.07
2019-05-15T15:15:59.564Z,3.57
2019-05-15T15:18:28.773Z,3.60
2019-05-15T15:20:58.170Z,4.00
2019-05-15T15:23:28.487Z,3.95
2019-05-15T15:25:58.301Z,3.80
2019-05-15T15:28:28.151Z,3.67
2019-05-15T15:31:03.005Z,3.97
2019-05-15T15:33:39.382Z,3.50
2019-05-15T15:36:13.073Z,3.90
2019-05-15T15:38:48.366Z,3.83
2019-05-15T15:41:18.805Z,3.40
2019-05-15T15:43:52.293Z,3.93
2019-05-15T15:46:21.310Z,3.80
2019-05-15T15:48:52.318Z,3.60
2019-05-15T15:51:21.672Z,3.57
2019-05-15T15:53:51.088Z,3.80
2019-05-15T15:56:20.360Z,3.47
2019-05-15T15:58:49.628Z,3.47
2019-05-15T16:01:18.970Z,3.70
2019-05-15T16:03:48.524Z,4.03
2019-05-15T16:06:18.785Z,3.67
2019-05-15T16:08:55.094Z,4.20
2019-05-15T16:11:21.483Z,3.83
2019-05-15T16:13:58.685Z,3.73
2019-05-15T16:16:28.973Z,3.73
2019-05-15T16:19:06.219Z,3.73
2019-05-15T16:21:40.834Z,3.73
2019-05-15T16:24:20.692Z,4.00
2019-05-15T16:27:01.097Z,3.87
2019-05-15T16:29:39.054Z,4.13
2019-05-15T16:32:11.846Z,4.00
2019-05-15T16:34:44.107Z,3.90
2019-05-15T16:37:13.312Z,4.03
2019-05-15T16:39:42.502Z,4.07
2019-05-15T16:42:11.811Z,3.50
2019-05-15T16:44:41.007Z,3.77
2019-05-15T16:47:10.383Z,3.63
2019-05-15T16:49:39.731Z,3.33
2019-05-15T16:52:09.395Z,3.80
2019-05-15T16:54:38.973Z,3.57
2019-05-15T16:57:09.960Z,4.03
2019-05-15T16:59:39.347Z,4.07
2019-05-15T17:02:09.917Z,4.13
2019-05-15T17:04:39.223Z,3.60
2019-05-15T17:07:08.679Z,3.73
2019-05-15T17:09:38.670Z,3.47
2019-05-15T17:12:08.765Z,3.80
2019-05-15T17:14:38.780Z,3.80
2019-05-15T17:17:08.583Z,3.70
2019-05-15T17:19:38.310Z,3.40
2019-05-15T17:22:09.434Z,3.50
2019-05-15T17:24:41.208Z,3.43
2019-05-15T17:27:12.286Z,3.50
2019-05-15T17:29:41.908Z,3.80
2019-05-15T17:32:11.326Z,3.70
2019-05-15T17:34:40.640Z,3.70
2019-05-15T17:37:10.004Z,3.60
2019-05-15T17:39:41.683Z,3.73
2019-05-15T17:42:10.172Z,3.70
2019-05-15T17:44:39.462Z,3.50
2019-05-15T17:47:09.675Z,3.60
2019-05-15T17:49:39.234Z,3.67
2019-05-15T17:52:08.906Z,4.20
2019-05-15T17:54:38.419Z,3.87
2019-05-15T17:57:09.175Z,3.90
2019-05-15T17:59:38.627Z,4.27
2019-05-15T18:02:08.685Z,3.93
2019-05-15T18:04:38.842Z,3.40
2019-05-15T18:07:08.751Z,3.43
2019-05-15T18:09:50.276Z,4.50
2019-05-15T18:12:11.133Z,3.60
2019-05-15T18:14:42.560Z,4.57
2019-05-15T18:17:12.054Z,3.93
2019-05-15T18:19:41.351Z,4.00
2019-05-15T18:22:11.387Z,3.90
2019-05-15T18:24:40.701Z,3.70
2019-05-15T18:27:10.432Z,3.73
2019-05-15T18:29:39.758Z,3.57
2019-05-15T18:32:09.059Z,4.10
2019-05-15T18:34:39.627Z,4.00
2019-05-15T18:37:09.498Z,4.00
2019-05-15T18:39:39.047Z,4.43
2019-05-15T18:42:09.491Z,4.10
2019-05-15T18:44:39.373Z,3.67
2019-05-15T18:47:09.188Z,4.00
2019-05-15T18:49:38.571Z,4.40
2019-05-15T18:52:09.065Z,4.03
2019-05-15T18:54:38.793Z,3.63
2019-05-15T18:57:08.662Z,4.00
2019-05-15T18:59:38.597Z,4.07
2019-05-15T19:02:08.092Z,3.93
2019-05-15T19:04:38.421Z,4.10
2019-05-15T19:07:08.891Z,4.40
2019-05-15T19:09:38.761Z,4.87
2019-05-15T19:12:09.462Z,5.47
2019-05-15T19:14:39.527Z,5.00
2019-05-15T19:17:10.137Z,4.53
2019-05-15T19:19:39.587Z,4.10
2019-05-15T19:22:09.302Z,4.47
2019-05-15T19:24:40.213Z,4.10
2019-05-15T19:27:10.095Z,4.10
2019-05-15T19:29:39.880Z,4.20
2019-05-15T19:32:11.146Z,4.10
2019-05-15T19:34:40.260Z,4.60
2019-05-15T19:37:09.777Z,3.97
2019-05-15T19:39:39.024Z,4.10
2019-05-15T19:42:08.913Z,4.40
2019-05-15T19:44:38.787Z,4.50
2019-05-15T19:47:08.087Z,4.07
2019-05-15T19:49:37.802Z,4.50
2019-05-15T19:52:08.562Z,4.53
2019-05-15T19:54:37.997Z,4.87
2019-05-15T19:57:08.035Z,4.80
2019-05-15T19:59:38.172Z,4.70
2019-05-15T20:02:08.576Z,4.40
2019-05-15T20:04:38.546Z,4.23
2019-05-15T20:07:08.413Z,4.53
2019-05-15T20:09:38.379Z,4.80
2019-05-15T20:12:09.081Z,5.07
2019-05-15T20:14:38.834Z,4.50
2019-05-15T20:17:08.215Z,5.07
2019-05-15T20:19:38.381Z,5.37
2019-05-15T20:22:08.335Z,4.90
2019-05-15T20:24:38.180Z,5.10
2019-05-15T20:27:08.599Z,5.00
2019-05-15T20:29:38.409Z,4.73
2019-05-15T20:32:08.354Z,5.33
2019-05-15T20:34:38.000Z,5.57
2019-05-15T20:37:07.573Z,5.07
2019-05-15T20:39:38.638Z,5.33
2019-05-15T20:42:08.830Z,5.27
2019-05-15T20:44:38.570Z,5.50
2019-05-15T20:47:08.475Z,5.33
2019-05-15T20:49:37.933Z,5.70
2019-05-15T20:52:07.707Z,5.63
2019-05-15T20:54:38.649Z,5.50
2019-05-15T20:57:08.868Z,6.10
2019-05-15T20:59:40.030Z,5.20
2019-05-15T21:02:09.657Z,5.47
2019-05-15T21:04:38.925Z,5.53
2019-05-15T21:07:10.324Z,4.70
2019-05-15T21:09:39.641Z,5.40
2019-05-15T21:12:09.825Z,4.70
2019-05-15T21:14:40.139Z,5.17
2019-05-15T21:17:09.980Z,5.03
2019-05-15T21:19:39.435Z,5.20
2019-05-15T21:22:11.010Z,4.93
2019-05-15T21:24:39.774Z,5.10
2019-05-15T21:27:09.050Z,5.57
2019-05-15T21:29:40.501Z,5.17
2019-05-15T21:32:09.298Z,5.57
2019-05-15T21:34:44.091Z,5.20
2019-05-15T21:37:10.432Z,5.40
2019-05-15T21:39:39.582Z,5.20
2019-05-15T21:42:09.053Z,5.67
2019-05-15T21:44:38.602Z,5.50
2019-05-15T21:47:08.217Z,5.47
2019-05-15T21:49:38.825Z,5.17
2019-05-15T21:52:08.741Z,5.83
2019-05-15T21:54:38.523Z,5.70
2019-05-15T21:57:29.392Z,5.67
2019-05-15T21:59:39.109Z,5.07
